sensor_id;sensor_type;location;lat;lon;timestamp;pressure;altitude;pressure_sealevel;temperature;humidity
70015;BME280;57358;51.094;6.760;2023-12-29T00:00:36;99989.28;;;9.74;97.88
70015;BME280;57358;51.094;6.760;2023-12-29T00:03:02;100034.63;;;9.90;98.85
70015;BME280;57358;51.094;6.760;2023-12-29T00:05:29;100034.63;;;9.90;98.69
70015;BME280;57358;51.094;6.760;2023-12-29T00:07:56;99998.25;;;9.70;98.88
70015;BME280;57358;51.094;6.760;2023-12-29T00:10:23;100018.97;;;9.74;98.70
70015;BME280;57358;51.094;6.760;2023-12-29T00:12:50;100000.06;;;9.98;96.75
70015;BME280;57358;51.094;6.760;2023-12-29T00:15:19;99990.44;;;10.13;95.76
70015;BME280;57358;51.094;6.760;2023-12-29T00:17:46;99982.09;;;10.06;96.19
70015;BME280;57358;51.094;6.760;2023-12-29T00:20:13;99982.38;;;10.02;96.94
70015;BME280;57358;51.094;6.760;2023-12-29T00:22:47;99942.88;;;9.90;97.07
70015;BME280;57358;51.094;6.760;2023-12-29T00:25:13;99972.94;;;9.85;97.68
70015;BME280;57358;51.094;6.760;2023-12-29T00:27:40;99951.09;;;9.84;96.73
70015;BME280;57358;51.094;6.760;2023-12-29T00:30:07;100001.47;;;10.04;97.34
70015;BME280;57358;51.094;6.760;2023-12-29T00:32:35;99999.81;;;10.03;97.26
70015;BME280;57358;51.094;6.760;2023-12-29T00:35:02;99928.94;;;9.75;96.07
70015;BME280;57358;51.094;6.760;2023-12-29T00:37:28;99923.41;;;9.66;96.77
70015;BME280;57358;51.094;6.760;2023-12-29T00:39:55;99988.19;;;10.07;96.43
70015;BME280;57358;51.094;6.760;2023-12-29T00:42:21;99933.72;;;9.69;96.97
70015;BME280;57358;51.094;6.760;2023-12-29T00:44:48;99928.09;;;9.75;96.83
70015;BME280;57358;51.094;6.760;2023-12-29T00:47:14;99945.88;;;9.98;95.76
70015;BME280;57358;51.094;6.760;2023-12-29T00:49:41;99918.91;;;9.82;95.65
70015;BME280;57358;51.094;6.760;2023-12-29T00:52:08;99973.28;;;10.22;95.16
70015;BME280;57358;51.094;6.760;2023-12-29T00:54:34;99968.72;;;10.11;96.37
70015;BME280;57358;51.094;6.760;2023-12-29T00:57:01;99975.53;;;10.13;96.05
70015;BME280;57358;51.094;6.760;2023-12-29T00:59:27;99964.03;;;10.02;95.89
70015;BME280;57358;51.094;6.760;2023-12-29T01:01:54;99925.19;;;9.79;96.57
70015;BME280;57358;51.094;6.760;2023-12-29T01:04:20;99906.09;;;9.63;96.64
70015;BME280;57358;51.094;6.760;2023-12-29T01:06:47;99990.16;;;10.03;97.19
70015;BME280;57358;51.094;6.760;2023-12-29T01:09:14;99967.03;;;9.81;97.87
70015;BME280;57358;51.094;6.760;2023-12-29T01:11:40;99992.84;;;10.02;98.49
70015;BME280;57358;51.094;6.760;2023-12-29T01:14:07;99966.28;;;9.93;98.39
70015;BME280;57358;51.094;6.760;2023-12-29T01:16:33;99939.78;;;9.84;98.26
70015;BME280;57358;51.094;6.760;2023-12-29T01:19:00;99894.97;;;9.45;98.35
70015;BME280;57358;51.094;6.760;2023-12-29T01:21:27;99987.06;;;9.96;99.22
70015;BME280;57358;51.094;6.760;2023-12-29T01:23:53;99983.59;;;9.96;99.00
70015;BME280;57358;51.094;6.760;2023-12-29T01:26:20;99978.72;;;9.90;99.59
70015;BME280;57358;51.094;6.760;2023-12-29T01:28:46;100007.09;;;9.97;99.77
70015;BME280;57358;51.094;6.760;2023-12-29T01:31:12;99950.94;;;9.73;99.27
70015;BME280;57358;51.094;6.760;2023-12-29T01:33:40;99942.59;;;9.81;98.85
70015;BME280;57358;51.094;6.760;2023-12-29T01:36:06;99990.31;;;10.00;99.17
70015;BME280;57358;51.094;6.760;2023-12-29T01:38:43;99980.78;;;9.85;99.82
70015;BME280;57358;51.094;6.760;2023-12-29T01:41:09;100000.94;;;9.98;100.00
70015;BME280;57358;51.094;6.760;2023-12-29T01:43:35;100013.66;;;10.05;100.00
70015;BME280;57358;51.094;6.760;2023-12-29T01:46:02;100010.16;;;10.04;100.00
70015;BME280;57358;51.094;6.760;2023-12-29T01:48:29;100005.22;;;9.99;100.00
70015;BME280;57358;51.094;6.760;2023-12-29T01:50:56;99944.75;;;9.59;100.00
70015;BME280;57358;51.094;6.760;2023-12-29T01:53:23;99949.06;;;9.61;100.00
70015;BME280;57358;51.094;6.760;2023-12-29T01:56:05;99970.94;;;9.59;100.00
70015;BME280;57358;51.094;6.760;2023-12-29T01:58:31;100013.16;;;9.84;100.00
70015;BME280;57358;51.094;6.760;2023-12-29T02:01:00;100032.34;;;9.84;100.00
70015;BME280;57358;51.094;6.760;2023-12-29T02:03:27;99988.91;;;9.66;100.00
70015;BME280;57358;51.094;6.760;2023-12-29T02:05:55;100011.28;;;9.86;100.00
70015;BME280;57358;51.094;6.760;2023-12-29T02:08:22;99980.13;;;9.81;100.00
70015;BME280;57358;51.094;6.760;2023-12-29T02:10:48;100007.84;;;9.85;100.00
70015;BME280;57358;51.094;6.760;2023-12-29T02:13:15;99974.06;;;9.66;100.00
70015;BME280;57358;51.094;6.760;2023-12-29T02:15:42;99993.53;;;9.76;100.00
70015;BME280;57358;51.094;6.760;2023-12-29T02:18:13;99997.56;;;9.96;100.00
70015;BME280;57358;51.094;6.760;2023-12-29T02:20:44;100017.19;;;9.89;100.00
70015;BME280;57358;51.094;6.760;2023-12-29T02:23:10;99962.31;;;9.43;100.00
70015;BME280;57358;51.094;6.760;2023-12-29T02:25:37;100041.53;;;9.77;100.00
70015;BME280;57358;51.094;6.760;2023-12-29T02:28:25;100079.06;;;9.92;100.00
70015;BME280;57358;51.094;6.760;2023-12-29T02:31:07;99888.28;;;8.66;100.00
70015;BME280;57358;51.094;6.760;2023-12-29T02:33:38;100022.81;;;9.38;100.00
70015;BME280;57358;51.094;6.760;2023-12-29T02:36:07;100099.94;;;9.79;100.00
70015;BME280;57358;51.094;6.760;2023-12-29T02:38:34;100078.34;;;9.59;100.00
70015;BME280;57358;51.094;6.760;2023-12-29T02:41:00;100040.56;;;9.33;100.00
70015;BME280;57358;51.094;6.760;2023-12-29T02:43:27;100094.97;;;9.74;100.00
70015;BME280;57358;51.094;6.760;2023-12-29T02:45:53;100089.97;;;9.70;100.00
70015;BME280;57358;51.094;6.760;2023-12-29T02:48:20;100104.47;;;9.61;100.00
70015;BME280;57358;51.094;6.760;2023-12-29T02:50:49;100078.72;;;9.68;100.00
70015;BME280;57358;51.094;6.760;2023-12-29T02:53:15;100052.78;;;9.49;100.00
70015;BME280;57358;51.094;6.760;2023-12-29T02:55:42;100051.91;;;9.64;100.00
70015;BME280;57358;51.094;6.760;2023-12-29T02:58:09;100060.59;;;9.65;100.00
70015;BME280;57358;51.094;6.760;2023-12-29T03:00:35;100065.25;;;9.59;100.00
70015;BME280;57358;51.094;6.760;2023-12-29T03:03:02;100054.22;;;9.69;100.00
70015;BME280;57358;51.094;6.760;2023-12-29T03:05:29;100031.22;;;9.44;100.00
70015;BME280;57358;51.094;6.760;2023-12-29T03:07:56;99840.47;;;8.48;100.00
70015;BME280;57358;51.094;6.760;2023-12-29T03:10:24;100029.22;;;9.63;100.00
70015;BME280;57358;51.094;6.760;2023-12-29T03:12:51;99985.25;;;9.24;100.00
70015;BME280;57358;51.094;6.760;2023-12-29T03:15:17;99978.88;;;9.13;100.00
70015;BME280;57358;51.094;6.760;2023-12-29T03:17:44;99992.56;;;9.18;100.00
70015;BME280;57358;51.094;6.760;2023-12-29T03:20:11;100055.88;;;9.55;100.00
70015;BME280;57358;51.094;6.760;2023-12-29T03:22:37;99852.03;;;8.28;100.00
70015;BME280;57358;51.094;6.760;2023-12-29T03:25:04;99970.69;;;9.34;100.00
70015;BME280;57358;51.094;6.760;2023-12-29T03:27:31;99978.78;;;9.45;100.00
70015;BME280;57358;51.094;6.760;2023-12-29T03:29:58;99972.94;;;9.40;100.00
70015;BME280;57358;51.094;6.760;2023-12-29T03:32:24;99989.63;;;9.53;100.00
70015;BME280;57358;51.094;6.760;2023-12-29T03:34:51;99990.75;;;9.49;100.00
70015;BME280;57358;51.094;6.760;2023-12-29T03:37:17;99958.59;;;9.62;100.00
70015;BME280;57358;51.094;6.760;2023-12-29T03:39:44;99985.06;;;9.71;100.00
70015;BME280;57358;51.094;6.760;2023-12-29T03:42:10;99913.84;;;9.36;100.00
70015;BME280;57358;51.094;6.760;2023-12-29T03:44:37;99923.84;;;9.44;100.00
70015;BME280;57358;51.094;6.760;2023-12-29T03:47:04;99862.78;;;9.14;100.00
70015;BME280;57358;51.094;6.760;2023-12-29T03:49:30;99957.38;;;9.67;100.00
70015;BME280;57358;51.094;6.760;2023-12-29T03:51:57;99958.50;;;9.63;100.00
70015;BME280;57358;51.094;6.760;2023-12-29T03:54:23;99960.53;;;9.58;100.00
70015;BME280;57358;51.094;6.760;2023-12-29T03:56:50;99907.97;;;9.32;100.00
70015;BME280;57358;51.094;6.760;2023-12-29T03:59:16;99955.88;;;9.63;100.00
70015;BME280;57358;51.094;6.760;2023-12-29T04:01:43;99875.81;;;9.45;100.00
70015;BME280;57358;51.094;6.760;2023-12-29T04:04:10;99871.22;;;9.63;100.00
70015;BME280;57358;51.094;6.760;2023-12-29T04:06:36;99733.00;;;8.67;100.00
70015;BME280;57358;51.094;6.760;2023-12-29T04:09:05;99837.44;;;9.44;100.00
70015;BME280;57358;51.094;6.760;2023-12-29T04:11:32;99910.50;;;9.77;100.00
70015;BME280;57358;51.094;6.760;2023-12-29T04:13:58;99845.66;;;9.37;100.00
70015;BME280;57358;51.094;6.760;2023-12-29T04:16:25;99915.91;;;9.74;100.00
70015;BME280;57358;51.094;6.760;2023-12-29T04:18:51;99931.56;;;9.75;100.00
70015;BME280;57358;51.094;6.760;2023-12-29T04:21:17;99925.84;;;9.83;100.00
70015;BME280;57358;51.094;6.760;2023-12-29T04:23:44;99925.00;;;9.83;100.00
70015;BME280;57358;51.094;6.760;2023-12-29T04:26:11;99923.69;;;9.90;100.00
70015;BME280;57358;51.094;6.760;2023-12-29T04:28:37;99886.28;;;9.59;100.00
70015;BME280;57358;51.094;6.760;2023-12-29T04:31:04;99936.41;;;9.96;100.00
70015;BME280;57358;51.094;6.760;2023-12-29T04:33:30;99838.66;;;9.38;100.00
70015;BME280;57358;51.094;6.760;2023-12-29T04:35:57;99867.19;;;9.57;100.00
70015;BME280;57358;51.094;6.760;2023-12-29T04:38:24;99937.28;;;9.96;100.00
70015;BME280;57358;51.094;6.760;2023-12-29T04:40:50;99942.78;;;9.92;100.00
70015;BME280;57358;51.094;6.760;2023-12-29T04:43:17;99927.81;;;9.79;100.00
70015;BME280;57358;51.094;6.760;2023-12-29T04:45:43;99916.97;;;9.57;100.00
70015;BME280;57358;51.094;6.760;2023-12-29T04:48:09;99898.69;;;9.27;100.00
70015;BME280;57358;51.094;6.760;2023-12-29T04:50:36;99956.53;;;9.67;100.00
70015;BME280;57358;51.094;6.760;2023-12-29T04:53:03;99812.78;;;8.60;100.00
70015;BME280;57358;51.094;6.760;2023-12-29T04:55:29;99917.50;;;9.33;100.00
70015;BME280;57358;51.094;6.760;2023-12-29T04:57:56;99963.66;;;9.65;100.00
70015;BME280;57358;51.094;6.760;2023-12-29T05:00:22;99900.19;;;9.31;100.00
70015;BME280;57358;51.094;6.760;2023-12-29T05:02:49;99966.53;;;9.60;100.00
70015;BME280;57358;51.094;6.760;2023-12-29T05:05:15;99961.66;;;9.54;100.00
70015;BME280;57358;51.094;6.760;2023-12-29T05:07:42;99970.09;;;9.59;100.00
70015;BME280;57358;51.094;6.760;2023-12-29T05:10:08;99986.28;;;9.66;100.00
70015;BME280;57358;51.094;6.760;2023-12-29T05:12:35;99903.53;;;9.18;100.00
70015;BME280;57358;51.094;6.760;2023-12-29T05:15:02;99973.56;;;9.59;100.00
70015;BME280;57358;51.094;6.760;2023-12-29T05:17:28;99902.22;;;9.26;100.00
70015;BME280;57358;51.094;6.760;2023-12-29T05:19:55;99932.38;;;9.62;100.00
70015;BME280;57358;51.094;6.760;2023-12-29T05:22:21;99930.16;;;9.70;100.00
70015;BME280;57358;51.094;6.760;2023-12-29T05:24:48;99923.59;;;9.63;100.00
70015;BME280;57358;51.094;6.760;2023-12-29T05:27:14;99915.25;;;9.56;100.00
70015;BME280;57358;51.094;6.760;2023-12-29T05:29:41;99930.97;;;9.56;100.00
70015;BME280;57358;51.094;6.760;2023-12-29T05:32:08;99913.88;;;9.65;100.00
70015;BME280;57358;51.094;6.760;2023-12-29T05:34:35;99806.28;;;8.96;100.00
70015;BME280;57358;51.094;6.760;2023-12-29T05:37:01;99903.13;;;9.55;100.00
70015;BME280;57358;51.094;6.760;2023-12-29T05:39:28;99732.34;;;8.33;100.00
70015;BME280;57358;51.094;6.760;2023-12-29T05:41:55;99866.31;;;9.28;100.00
70015;BME280;57358;51.094;6.760;2023-12-29T05:44:22;99892.81;;;9.52;100.00
70015;BME280;57358;51.094;6.760;2023-12-29T05:46:48;99838.84;;;9.21;100.00
70015;BME280;57358;51.094;6.760;2023-12-29T05:49:15;99891.59;;;9.43;100.00
70015;BME280;57358;51.094;6.760;2023-12-29T05:51:43;99896.16;;;9.39;100.00
70015;BME280;57358;51.094;6.760;2023-12-29T05:54:10;99874.00;;;9.45;100.00
70015;BME280;57358;51.094;6.760;2023-12-29T05:56:37;99790.03;;;8.91;100.00
70015;BME280;57358;51.094;6.760;2023-12-29T05:59:03;99884.69;;;9.42;100.00
70015;BME280;57358;51.094;6.760;2023-12-29T06:01:30;99886.94;;;9.48;100.00
70015;BME280;57358;51.094;6.760;2023-12-29T06:03:56;99856.44;;;9.33;100.00
70015;BME280;57358;51.094;6.760;2023-12-29T06:06:26;99880.94;;;9.46;100.00
70015;BME280;57358;51.094;6.760;2023-12-29T06:08:53;99878.03;;;9.36;100.00
70015;BME280;57358;51.094;6.760;2023-12-29T06:11:20;99874.56;;;9.36;100.00
70015;BME280;57358;51.094;6.760;2023-12-29T06:13:47;99846.84;;;8.89;100.00
70015;BME280;57358;51.094;6.760;2023-12-29T06:16:17;99901.28;;;9.12;100.00
70015;BME280;57358;51.094;6.760;2023-12-29T06:18:44;99863.69;;;8.99;100.00
70015;BME280;57358;51.094;6.760;2023-12-29T06:21:11;99685.75;;;7.95;100.00
70015;BME280;57358;51.094;6.760;2023-12-29T06:23:38;99920.69;;;9.24;100.00
70015;BME280;57358;51.094;6.760;2023-12-29T06:26:04;99890.69;;;8.99;100.00
70015;BME280;57358;51.094;6.760;2023-12-29T06:28:30;99771.09;;;8.11;100.00
70015;BME280;57358;51.094;6.760;2023-12-29T06:30:57;99958.13;;;9.10;100.00
70015;BME280;57358;51.094;6.760;2023-12-29T06:33:24;99919.00;;;8.93;100.00
70015;BME280;57358;51.094;6.760;2023-12-29T06:35:50;99968.91;;;9.20;100.00
70015;BME280;57358;51.094;6.760;2023-12-29T06:38:18;99930.38;;;8.92;100.00
70015;BME280;57358;51.094;6.760;2023-12-29T06:40:44;99956.38;;;9.25;100.00
70015;BME280;57358;51.094;6.760;2023-12-29T06:43:11;99943.69;;;9.33;100.00
70015;BME280;57358;51.094;6.760;2023-12-29T06:45:37;99948.44;;;9.27;100.00
70015;BME280;57358;51.094;6.760;2023-12-29T06:48:04;99879.88;;;8.75;100.00
70015;BME280;57358;51.094;6.760;2023-12-29T06:50:31;99929.22;;;8.82;100.00
70015;BME280;57358;51.094;6.760;2023-12-29T06:52:57;99996.16;;;9.16;100.00
70015;BME280;57358;51.094;6.760;2023-12-29T06:55:24;99962.44;;;8.95;100.00
70015;BME280;57358;51.094;6.760;2023-12-29T06:57:51;100016.69;;;9.24;100.00
70015;BME280;57358;51.094;6.760;2023-12-29T07:00:18;100012.38;;;9.23;100.00
70015;BME280;57358;51.094;6.760;2023-12-29T07:02:45;99973.13;;;8.92;100.00
70015;BME280;57358;51.094;6.760;2023-12-29T07:05:11;99950.06;;;8.83;100.00
70015;BME280;57358;51.094;6.760;2023-12-29T07:07:38;100018.91;;;9.46;100.00
70015;BME280;57358;51.094;6.760;2023-12-29T07:10:05;99988.94;;;9.35;100.00
70015;BME280;57358;51.094;6.760;2023-12-29T07:12:32;99990.75;;;9.49;100.00
70015;BME280;57358;51.094;6.760;2023-12-29T07:14:59;99927.84;;;9.21;100.00
70015;BME280;57358;51.094;6.760;2023-12-29T07:17:25;99945.25;;;9.22;100.00
70015;BME280;57358;51.094;6.760;2023-12-29T07:19:52;99987.69;;;9.57;100.00
70015;BME280;57358;51.094;6.760;2023-12-29T07:22:18;99975.50;;;9.56;100.00
70015;BME280;57358;51.094;6.760;2023-12-29T07:24:45;99987.03;;;9.53;100.00
70015;BME280;57358;51.094;6.760;2023-12-29T07:27:11;99974.28;;;9.47;100.00
70015;BME280;57358;51.094;6.760;2023-12-29T07:29:38;99977.66;;;9.49;100.00
70015;BME280;57358;51.094;6.760;2023-12-29T07:32:05;99981.78;;;9.53;100.00
70015;BME280;57358;51.094;6.760;2023-12-29T07:34:31;99921.88;;;9.18;100.00
70015;BME280;57358;51.094;6.760;2023-12-29T07:36:58;99983.47;;;9.54;100.00
70015;BME280;57358;51.094;6.760;2023-12-29T07:39:25;99996.66;;;9.53;100.00
70015;BME280;57358;51.094;6.760;2023-12-29T07:41:52;100009.75;;;9.53;100.00
70015;BME280;57358;51.094;6.760;2023-12-29T07:44:19;99924.47;;;9.04;100.00
70015;BME280;57358;51.094;6.760;2023-12-29T07:46:46;100015.22;;;9.64;100.00
70015;BME280;57358;51.094;6.760;2023-12-29T07:49:12;99852.13;;;8.43;100.00
70015;BME280;57358;51.094;6.760;2023-12-29T07:51:46;99980.25;;;9.05;100.00
70015;BME280;57358;51.094;6.760;2023-12-29T07:54:13;100099.50;;;9.56;100.00
70015;BME280;57358;51.094;6.760;2023-12-29T07:56:39;100056.66;;;9.11;100.00
70015;BME280;57358;51.094;6.760;2023-12-29T07:59:06;100131.03;;;9.23;100.00
70015;BME280;57358;51.094;6.760;2023-12-29T08:01:32;100174.44;;;9.27;100.00
70015;BME280;57358;51.094;6.760;2023-12-29T08:03:59;99909.47;;;7.65;100.00
70015;BME280;57358;51.094;6.760;2023-12-29T08:06:26;100200.13;;;9.21;100.00
70015;BME280;57358;51.094;6.760;2023-12-29T08:08:54;100118.53;;;8.65;100.00
70015;BME280;57358;51.094;6.760;2023-12-29T08:11:20;100106.19;;;8.33;100.00
70015;BME280;57358;51.094;6.760;2023-12-29T08:13:48;100145.41;;;8.51;100.00
70015;BME280;57358;51.094;6.760;2023-12-29T08:16:15;100202.09;;;8.84;100.00
70015;BME280;57358;51.094;6.760;2023-12-29T08:18:45;100261.84;;;9.09;100.00
70015;BME280;57358;51.094;6.760;2023-12-29T08:21:19;100259.63;;;9.01;100.00
70015;BME280;57358;51.094;6.760;2023-12-29T08:23:46;100279.81;;;8.99;100.00
70015;BME280;57358;51.094;6.760;2023-12-29T08:26:15;100252.91;;;8.79;100.00
70015;BME280;57358;51.094;6.760;2023-12-29T08:28:42;100224.56;;;8.54;100.00
70015;BME280;57358;51.094;6.760;2023-12-29T08:31:09;100191.72;;;8.14;100.00
70015;BME280;57358;51.094;6.760;2023-12-29T08:33:36;100310.69;;;8.75;100.00
70015;BME280;57358;51.094;6.760;2023-12-29T08:36:08;100313.78;;;8.83;100.00
70015;BME280;57358;51.094;6.760;2023-12-29T08:38:35;100291.94;;;8.67;100.00
70015;BME280;57358;51.094;6.760;2023-12-29T08:41:02;100323.41;;;8.83;100.00
70015;BME280;57358;51.094;6.760;2023-12-29T08:43:29;100284.78;;;8.53;100.00
70015;BME280;57358;51.094;6.760;2023-12-29T08:45:58;100309.78;;;8.76;100.00
70015;BME280;57358;51.094;6.760;2023-12-29T08:48:24;100251.38;;;8.41;100.00
70015;BME280;57358;51.094;6.760;2023-12-29T08:50:52;100336.16;;;8.89;100.00
70015;BME280;57358;51.094;6.760;2023-12-29T08:53:20;100217.94;;;8.12;100.00
70015;BME280;57358;51.094;6.760;2023-12-29T08:55:47;100263.44;;;8.26;100.00
70015;BME280;57358;51.094;6.760;2023-12-29T08:58:13;100330.47;;;8.63;100.00
70015;BME280;57358;51.094;6.760;2023-12-29T09:00:42;100227.03;;;8.04;100.00
70015;BME280;57358;51.094;6.760;2023-12-29T09:03:09;100379.19;;;8.83;100.00
70015;BME280;57358;51.094;6.760;2023-12-29T09:05:36;100373.94;;;8.83;100.00
70015;BME280;57358;51.094;6.760;2023-12-29T09:08:03;100355.78;;;8.63;100.00
70015;BME280;57358;51.094;6.760;2023-12-29T09:10:29;100387.09;;;8.82;100.00
70015;BME280;57358;51.094;6.760;2023-12-29T09:12:58;100322.47;;;8.49;100.00
70015;BME280;57358;51.094;6.760;2023-12-29T09:15:25;100364.25;;;8.68;100.00
70015;BME280;57358;51.094;6.760;2023-12-29T09:17:51;100391.13;;;8.89;100.00
70015;BME280;57358;51.094;6.760;2023-12-29T09:20:18;100384.81;;;8.93;100.00
70015;BME280;57358;51.094;6.760;2023-12-29T09:22:45;100300.16;;;8.42;100.00
70015;BME280;57358;51.094;6.760;2023-12-29T09:25:11;100244.84;;;8.14;100.00
70015;BME280;57358;51.094;6.760;2023-12-29T09:27:38;100365.53;;;8.94;100.00
70015;BME280;57358;51.094;6.760;2023-12-29T09:30:05;100371.53;;;9.13;100.00
70015;BME280;57358;51.094;6.760;2023-12-29T09:32:32;100353.09;;;8.99;100.00
70015;BME280;57358;51.094;6.760;2023-12-29T09:34:58;100374.03;;;9.16;100.00
70015;BME280;57358;51.094;6.760;2023-12-29T09:37:25;100273.16;;;8.58;100.00
70015;BME280;57358;51.094;6.760;2023-12-29T09:39:51;100366.63;;;9.07;100.00
70015;BME280;57358;51.094;6.760;2023-12-29T09:42:22;100174.19;;;7.98;100.00
70015;BME280;57358;51.094;6.760;2023-12-29T09:44:51;100377.53;;;9.33;100.00
70015;BME280;57358;51.094;6.760;2023-12-29T09:47:28;100365.28;;;9.33;100.00
70015;BME280;57358;51.094;6.760;2023-12-29T09:49:55;100277.53;;;8.75;100.00
70015;BME280;57358;51.094;6.760;2023-12-29T09:52:23;100359.44;;;9.28;100.00
70015;BME280;57358;51.094;6.760;2023-12-29T09:54:52;100236.25;;;8.47;100.00
70015;BME280;57358;51.094;6.760;2023-12-29T09:57:19;100370.63;;;9.48;100.00
70015;BME280;57358;51.094;6.760;2023-12-29T09:59:48;100213.81;;;8.76;100.00
70015;BME280;57358;51.094;6.760;2023-12-29T10:02:15;100294.00;;;9.44;100.00
70015;BME280;57358;51.094;6.760;2023-12-29T10:04:42;100332.56;;;9.90;100.00
70015;BME280;57358;51.094;6.760;2023-12-29T10:07:13;100262.81;;;9.55;100.00
70015;BME280;57358;51.094;6.760;2023-12-29T10:09:43;100239.56;;;9.33;100.00
70015;BME280;57358;51.094;6.760;2023-12-29T10:12:11;100226.06;;;9.25;100.00
70015;BME280;57358;51.094;6.760;2023-12-29T10:15:10;100311.00;;;9.85;100.00
70015;BME280;57358;51.094;6.760;2023-12-29T10:20:46;100305.34;;;9.92;100.00
70015;BME280;57358;51.094;6.760;2023-12-29T10:23:32;100309.97;;;10.19;100.00
70015;BME280;57358;51.094;6.760;2023-12-29T10:25:59;100301.41;;;10.31;100.00
70015;BME280;57358;51.094;6.760;2023-12-29T10:28:26;100214.78;;;10.03;100.00
70015;BME280;57358;51.094;6.760;2023-12-29T10:30:52;100243.44;;;10.36;100.00
70015;BME280;57358;51.094;6.760;2023-12-29T10:33:20;100215.34;;;10.38;100.00
70015;BME280;57358;51.094;6.760;2023-12-29T10:35:58;100191.84;;;10.36;100.00
70015;BME280;57358;51.094;6.760;2023-12-29T10:38:30;100171.63;;;10.38;100.00
70015;BME280;57358;51.094;6.760;2023-12-29T10:41:16;100156.25;;;10.47;100.00
70015;BME280;57358;51.094;6.760;2023-12-29T10:43:44;100104.75;;;10.15;100.00
70015;BME280;57358;51.094;6.760;2023-12-29T10:46:13;100088.84;;;10.18;100.00
70015;BME280;57358;51.094;6.760;2023-12-29T10:48:39;100110.53;;;10.36;100.00
70015;BME280;57358;51.094;6.760;2023-12-29T10:51:06;100126.25;;;10.80;100.00
70015;BME280;57358;51.094;6.760;2023-12-29T10:53:34;100096.69;;;10.90;100.00
70015;BME280;57358;51.094;6.760;2023-12-29T10:56:16;100083.44;;;11.06;100.00
70015;BME280;57358;51.094;6.760;2023-12-29T10:58:57;100012.59;;;10.92;100.00
70015;BME280;57358;51.094;6.760;2023-12-29T11:01:23;99934.25;;;10.86;100.00
70015;BME280;57358;51.094;6.760;2023-12-29T11:04:02;99985.91;;;11.25;100.00
70015;BME280;57358;51.094;6.760;2023-12-29T11:06:40;99774.53;;;10.27;100.00
70015;BME280;57358;51.094;6.760;2023-12-29T11:09:06;99933.06;;;11.17;100.00
70015;BME280;57358;51.094;6.760;2023-12-29T11:11:34;99951.88;;;11.36;100.00
70015;BME280;57358;51.094;6.760;2023-12-29T11:14:02;99953.03;;;11.32;100.00
70015;BME280;57358;51.094;6.760;2023-12-29T11:16:30;99952.31;;;11.43;100.00
70015;BME280;57358;51.094;6.760;2023-12-29T11:18:58;99924.03;;;11.34;100.00
70015;BME280;57358;51.094;6.760;2023-12-29T11:21:27;99943.91;;;11.38;100.00
70015;BME280;57358;51.094;6.760;2023-12-29T11:23:56;99837.44;;;10.81;100.00
70015;BME280;57358;51.094;6.760;2023-12-29T11:26:26;99848.81;;;10.94;100.00
70015;BME280;57358;51.094;6.760;2023-12-29T11:28:54;99892.84;;;11.16;100.00
70015;BME280;57358;51.094;6.760;2023-12-29T11:31:21;99901.84;;;11.12;100.00
70015;BME280;57358;51.094;6.760;2023-12-29T11:34:02;99909.09;;;11.09;100.00
70015;BME280;57358;51.094;6.760;2023-12-29T11:36:34;99934.06;;;11.02;100.00
70015;BME280;57358;51.094;6.760;2023-12-29T11:39:24;99912.44;;;10.98;100.00
70015;BME280;57358;51.094;6.760;2023-12-29T11:42:26;99855.44;;;10.60;100.00
70015;BME280;57358;51.094;6.760;2023-12-29T11:44:56;99859.59;;;10.90;100.00
70015;BME280;57358;51.094;6.760;2023-12-29T11:47:38;99839.28;;;10.66;100.00
70015;BME280;57358;51.094;6.760;2023-12-29T11:50:05;99790.00;;;10.31;100.00
70015;BME280;57358;51.094;6.760;2023-12-29T11:52:36;99886.91;;;11.00;100.00
70015;BME280;57358;51.094;6.760;2023-12-29T11:57:35;99947.59;;;10.95;100.00
70015;BME280;57358;51.094;6.760;2023-12-29T12:00:06;99968.19;;;10.89;100.00
70015;BME280;57358;51.094;6.760;2023-12-29T12:02:34;99941.75;;;10.65;100.00
70015;BME280;57358;51.094;6.760;2023-12-29T12:05:01;99998.63;;;10.91;100.00
70015;BME280;57358;51.094;6.760;2023-12-29T12:12:46;99903.28;;;10.51;100.00
70015;BME280;57358;51.094;6.760;2023-12-29T12:18:00;99882.38;;;10.76;100.00
70015;BME280;57358;51.094;6.760;2023-12-29T12:20:27;99905.38;;;10.86;100.00
70015;BME280;57358;51.094;6.760;2023-12-29T12:23:01;99981.09;;;10.92;100.00
70015;BME280;57358;51.094;6.760;2023-12-29T12:25:31;100006.34;;;11.07;100.00
70015;BME280;57358;51.094;6.760;2023-12-29T12:28:06;99911.81;;;10.54;100.00
70015;BME280;57358;51.094;6.760;2023-12-29T12:30:33;100018.19;;;11.00;100.00
70015;BME280;57358;51.094;6.760;2023-12-29T12:33:04;99962.00;;;10.63;100.00
70015;BME280;57358;51.094;6.760;2023-12-29T12:35:32;100022.66;;;10.85;100.00
70015;BME280;57358;51.094;6.760;2023-12-29T12:40:35;99981.34;;;10.33;100.00
70015;BME280;57358;51.094;6.760;2023-12-29T12:43:02;100058.88;;;10.66;100.00
70015;BME280;57358;51.094;6.760;2023-12-29T12:45:34;100099.94;;;10.67;100.00
70015;BME280;57358;51.094;6.760;2023-12-29T12:48:22;100104.91;;;10.57;100.00
70015;BME280;57358;51.094;6.760;2023-12-29T12:50:50;100122.16;;;10.61;100.00
70015;BME280;57358;51.094;6.760;2023-12-29T12:53:16;100053.22;;;10.30;100.00
70015;BME280;57358;51.094;6.760;2023-12-29T12:55:48;100079.41;;;10.73;100.00
70015;BME280;57358;51.094;6.760;2023-12-29T12:58:19;100042.09;;;10.68;100.00
70015;BME280;57358;51.094;6.760;2023-12-29T13:00:50;100043.59;;;10.72;100.00
70015;BME280;57358;51.094;6.760;2023-12-29T13:03:21;100052.50;;;10.70;100.00
70015;BME280;57358;51.094;6.760;2023-12-29T13:05:48;99951.75;;;10.16;100.00
70015;BME280;57358;51.094;6.760;2023-12-29T13:08:17;100029.53;;;10.73;100.00
70015;BME280;57358;51.094;6.760;2023-12-29T13:10:59;100021.47;;;10.76;100.00
70015;BME280;57358;51.094;6.760;2023-12-29T13:13:39;99941.41;;;10.28;100.00
70015;BME280;57358;51.094;6.760;2023-12-29T13:16:06;100006.16;;;10.83;100.00